メインページ
METAR-TAF:

METAR-TAF

空港 :

Edward F. Knapp State Airport

Barre / モントピリア, バーモント州, アメリカ合衆国

緯度: 44-12-17N, 経度: 072-33-58W, 海抜: 355m

現時点の気象観測

当レポートは55分前の17:51(UTC)に作成
南/南東の風 6kt
気温 29°C
湿度 48%
気圧 1022 hPa
視程: 16.1km
晴天

METAR: KMPV 261751Z AUTO 16006KT 10SM CLR 29/17 A3018 RMK AO2 SLP216 T02890167 10289 20161 58013

時間: 14:46 (18:46 UTC)

予報

当レポートは1時間26分前の17:20(UTC)に作成
予報は26日の 18時(UTC)から 27日の 18時(UTC)まで有効
変向風 5kt
視程: 10km
高度18000ftの雲はほとんどない

TAF: KMPV 261720Z 2618/2718 VRB05KT P6SM FEW180

4,000以上の空港の気象観測と天気予報(METAR報とTAF報)

利用可能な観測所は地図上に黄色い丸と赤い丸で示す。

丸の上にカーソルを重ねると観測所名を参照できる。

次にクリックすると気象観測と天気予報を参照できる。

マップの切り替え:黒色「×」印の緑ボタンをクリックして拡大、「-」印の緑ボタンをクリックして縮小、緑色の三角印をクリックして隣りの地図に切り替え


METAR-TAF: